Gibson, LA (70356)

10:40 AM CST on February 12, 2016 (GMT -0600)
Jerry's House (Schriever/Thibodaux) | | Change Station
CLOSE
Current Station
Personal Weather Station
Location: Thibodaux, LA
Elevation: 11 ft
Nearby Weather Stations

Elev 11 ft 29.76 °N, 90.82 °W | Updated 1 minute ago

Partly Cloudy
Partly Cloudy
69.2 °F
Feels Like 69.2 °F
N
11.0
Wind Variable Wind from SW
Gusts 18.0 mph

Today
High -- | Low -- °F
--% Chance of Precip.
Yesterday
High -- | Low -- °F
Precip. -- in
Pressure 30.29 in
Visibility 7.0 miles
Clouds Clear
Dew Point 61 °F
Humidity 75%
Rainfall 0.00 in
Snow Depth Not available.
6:46 AM 5:50 PM
Waxing Crescent, 22% visible
METAR KHUM 121550Z 25012G16KT 7SM SKC 20/16 A3029 RMK VA RY 18 ATIS X...DV
Pressure 30.29 in
Visibility 7.0 miles
Clouds Clear
Dew Point 61 °F
Humidity 75%
Rainfall 0.00 in
Snow Depth Not available.
6:46 AM 5:50 PM
Waxing Crescent, 22% visible
METAR KHUM 121550Z 25012G16KT 7SM SKC 20/16 A3029 RMK VA RY 18 ATIS X...DV

10-Day Weather Forecast

Almanac

Astronomy

Feb. 12, 2016 Rise Set
Actual Time
Civil Twilight
Nautical Twilight
Astronomical Twilight
Moon
Length of Visible Light
Length of Day
Tomorrow will be .
, % of the Moon is Illuminated

Today's Extremes

State Highs State Lows

Community

WunderPhotos

Upload Photos

1,892,351 photos uploaded!

WunderBlog® & News

Nearby

Air Quality

  Air Quality AQ Index Pollutant
Not available.

Snow Depth

Station Depth Elevation

Earthquake Activity

City Distance Mag. Time & Date
Minimum magnitude displayed is 2.5.

Coastal Water Temperatures

Place Temperature

Stations

Nearby Weather Stations

Station Location Temp. Windchill Dew Point Humidity Wind Precip. Elev Updated Type
                   

Watches & Warnings

There are currently no watches in effect.